Create Tblcommutelog Verified Points Advance Search
| # | Trip ID | Id Commuter | Trip Date | Trip Num | Current Lat | Current Lng | Delta Distance | Current Time | Activity | Activity Confidence | Current Speed | |
|---|---|---|---|---|---|---|---|---|---|---|---|---|
| 71301 | 250417_780473_16648144_1305 | 780473 | (not set) | (not set) | 38.907289591821 | -77.031814371167 | 0.6496 | 2025-04-17 17:20:56.054 | on_foot | 100 | 0.88960812538557 | |
| 71302 | 250417_778121_16450333_1316 | 778121 | (not set) | (not set) | 38.873938995075 | -77.001935505563 | 0.3005 | 2025-04-17 17:20:56.568 | on_foot | 100 | 0.31739787388128 | |
| 71303 | 250417_768390_16511597_1309 | 768390 | (not set) | (not set) | 38.835728517688 | -77.126658402521 | 1.0958 | 2025-04-17 17:21:15.345 | in_vehicle | 100 | 2.767173013134 | |
| 71304 | 250417_780569_16424909_1310 | 780569 | (not set) | (not set) | 38.894873815382 | -77.029661611463 | 0.358 | 2025-04-17 17:21:20.633 | on_foot | 100 | 0.42468729603834 | |
| 71305 | 250417_778121_16450333_1316 | 778121 | (not set) | (not set) | 38.874401758203 | -77.001975419053 | 0.3324 | 2025-04-17 17:21:27.527 | on_foot | 100 | 0.36657219236993 | |
| 71306 | 250417_768390_16511597_1309 | 768390 | (not set) | (not set) | 38.835879717748 | -77.125499043124 | 1.1592 | 2025-04-17 17:21:35.276 | in_vehicle | 100 | 2.2039035468095 | |
| 71307 | 250417_768390_16511597_1309 | 768390 | (not set) | (not set) | 38.836120878066 | -77.124333398639 | 1.2243 | 2025-04-17 17:21:56.286 | in_vehicle | 100 | 2.2888410060171 | |
| 71308 | 250417_778121_16450333_1316 | 778121 | (not set) | (not set) | 38.874876919804 | -77.002029485606 | 0.3654 | 2025-04-17 17:21:56.452 | on_foot | 100 | 0.69738124402085 | |
| 71309 | 250417_780569_16424909_1310 | 780569 | (not set) | (not set) | 38.895337505741 | -77.029632647361 | 0.39 | 2025-04-17 17:22:00.441 | on_foot | 100 | 0.31292748129141 | |
| 71310 | 250417_778121_16450333_1316 | 778121 | (not set) | (not set) | 38.875007833725 | -77.002037279753 | 0.3744 | 2025-04-17 17:22:04.41 | on_foot | 100 | 0.67949967366134 | |
| 71311 | 250417_768390_16511597_1309 | 768390 | (not set) | (not set) | 38.835697861784 | -77.123263938993 | 1.2889 | 2025-04-17 17:22:19.327 | in_vehicle | 100 | 2.5391829910503 | |
| 71312 | 250417_768390_16511597_1309 | 768390 | (not set) | (not set) | 38.835762543832 | -77.12208242153 | 1.3528 | 2025-04-17 17:22:41.327 | in_vehicle | 100 | 2.9325775389595 | |
| 71313 | 250417_768390_16511597_1309 | 768390 | (not set) | (not set) | 38.836251981537 | -77.121083060068 | 1.4164 | 2025-04-17 17:22:58.25 | in_vehicle | 100 | 2.5704757391794 | |
| 71314 | 250417_780569_16424909_1310 | 780569 | (not set) | (not set) | 38.895787140083 | -77.029580009536 | 0.4211 | 2025-04-17 17:23:11.28 | on_foot | 100 | 0.48280239970674 | |
| 71315 | 250417_768390_16511597_1309 | 768390 | (not set) | (not set) | 38.835866275379 | -77.120024690169 | 1.4794 | 2025-04-17 17:23:23.598 | in_vehicle | 100 | 2.5972980947187 | |
| 71316 | 250417_768390_16511597_1309 | 768390 | (not set) | (not set) | 38.835735880126 | -77.118849983273 | 1.5434 | 2025-04-17 17:23:50.33 | in_vehicle | 100 | 2.1547292283208 | |
| 71317 | 250417_768390_16511597_1309 | 768390 | (not set) | (not set) | 38.835134524365 | -77.117982556106 | 1.606 | 2025-04-17 17:24:17.318 | in_vehicle | 100 | 1.9937950950853 | |
| 71318 | 250417_774398_16504560_1302 | 774398 | (not set) | (not set) | 38.900663016947 | -77.035669045392 | 2.209 | 2025-04-17 17:24:17.528 | on_foot | 100 | -0.44703925898772 | |
| 71319 | 250417_774398_16504560_1302 | 774398 | (not set) | (not set) | 38.901375853773 | -77.03061878998 | 2.6865 | 2025-04-17 17:29:53.199 | on_foot | 100 | 0.69291085143097 | |
| 71320 | 250417_781588_0_1330 | 781588 | (not set) | (not set) | 38.901071209174 | -77.033744869941 | 0 | 2025-04-17 17:30:18.172 | unknown | 100 | -0.44703925898772 |